BGUK

Upernavik Airport

Upernavik, Greenland
TAF AMD BGUK 251640Z 2516/2522 09005KT 9999 SCT050 TEMPO 2516/2522 2500 SHSN BKN008
Issued Valid From Valid To
Sep-25 @ 16:40 UTC
(46 minutes ago)
Sep-25 @ 16:00 UTC
(an hour ago)
Sep-25 @ 22:00 UTC
(in 5 hours)
Sep-25 @ 16:00 to Sep-25 @ 22:00
TAF AMD BGUK 251640Z 2516/2522 09005KT 9999 SCT050
Wind Visibility Clouds
90° at 5 knots 10,000+ meters
  • Scattered at 5,000' AGL
Temporary Sep-25 @ 16:00 to Sep-25 @ 22:00
TEMPO 2516/2522 2500 SHSN BKN008
Visibility Clouds Conditions
2,494 meters
  • Broken at 800' AGL
  • Snow
TAF AMD BGUK 251640Z 2516/2522 09005KT 9999 SCT050 TEMPO 2516/2522 2500 SHSN BKN008
Issued Sep-25 @ 16:40 UTC
(46 minutes ago)
Valid From Sep-25 @ 16:00 UTC
(an hour ago)
Valid To Sep-25 @ 22:00 UTC
(in 5 hours)
Sep-25 @ 16:00 - Sep-25 @ 22:00
Wind Visibility
90° at 5 knots 10,000+ meters
Clouds
  • Scattered at 5,000' AGL
Temporary Sep-25 @ 16:00 - Sep-25 @ 22:00
Clouds
  • Broken at 800' AGL
Conditions
  • Snow